Goldsmith, Texas
Current Conditions -  °F | °C
As of 5:53 AM on Monday 20 Oct 2014 (Local Time) from KODO Reporting Station
Clear Clear  
Wind Chill: 58°   Ceiling: Unl
Heat Index: 58°   Visibility: 7mi
Dew Point: 55°   Wind: 5mph
Humidity: 90%   Direction: 80°E
Pressure: 30.08"   Gusts: NA
Location:  31.98°N, 102.62°W
Report Text: KODO 201053Z AUTO 08004KT 7SM CLR 14/13 A3008 RMK AO2 SLP150 T01440128
Loading
Personal Weather Stations






























Interactive Weather Map
Tropical Storm Tracking
New forecast layout! Learn more

10-Day Weather Forecast

Advertisements
Track Severe Weather on mobile